Delta Fantasy — WDF8698 — position and weather

sailwx.info

Track history (hours):
 
Tides and Currents Weather Stations Pressure Air Temp Water Temp Dewpoint Dewpoint Depression Visibility Wind Speed Wind Dir Waves Ship Positions

Delta Fantasy

Owner: Crosby Marine Transportation LLC, Golden Meadow, LA. More information available from US FCC via Universal Licensing System and Coast Guard Vessel Documentation Center.

Last reported at 2017-Nov-15 08:14 UTC. Time now 2017-Nov-18 11:53 UTC.
Position N 40°60' W 073°53'.

Length 32 m; draft 4 m.

Type: Tug. MMSI: 367497610.

Date/timePositionNaut miles runAvg speedWind from/ knotsBaromVisibWave heightAir tempDewpointWater temp
2017-Nov-15 08:14N 40°60' W 073°53'2 7.1
2017-Nov-15 07:58N 40°58' W 073°54'3 6.8
2017-Nov-15 07:30N 40°55' W 073°55'3 6.4
2017-Nov-15 07:00N 40°52' W 073°56'3 6.0
2017-Nov-15 06:30N 40°49' W 073°58'3 5.4
2017-Nov-15 06:00N 40°47' W 073°60'3 5.3
2017-Nov-15 05:30N 40°44' W 074°01'3 5.4
2017-Nov-15 05:01N 40°42' W 074°02'3 6.0
2017-Nov-15 04:30N 40°39' W 074°04'4 7.9
2017-Nov-15 04:01N 40°39' W 074°10'3 6.0
2017-Nov-15 03:30N 40°36' W 074°12'3 5.8
2017-Nov-15 02:58N 40°33' W 074°13'2 0.6
2017-Nov-14 23:24N 40°32' W 074°15'0 0.0
2017-Nov-14 18:16N 40°32' W 074°15'0 1.7
2017-Nov-14 17:59N 40°33' W 074°15'0 0.0
2017-Nov-14 17:30N 40°33' W 074°15'1 1.6
2017-Nov-14 16:37N 40°33' W 074°14'0 0.2
2017-Nov-14 16:25N 40°33' W 074°14'2 3.9
2017-Nov-14 16:01N 40°35' W 074°13'4 7.8
2017-Nov-14 15:30N 40°39' W 074°11'4 7.8
2017-Nov-14 15:00N 40°39' W 074°06'5 9.3
2017-Nov-14 14:30N 40°41' W 074°01'510.9
2017-Nov-14 14:00N 40°46' W 073°57'5 9.3
2017-Nov-14 13:30N 40°48' W 073°52'24 0.6
2017-Nov-12 23:50N 40°32' W 074°15'1 2.3
2017-Nov-12 23:30N 40°33' W 074°15'2 2.7
2017-Nov-12 22:49N 40°34' W 074°13'3 9.0
2017-Nov-12 22:30N 40°37' W 074°12'3 6.9
2017-Nov-12 22:00N 40°39' W 074°08'3 5.8
2017-Nov-12 21:30N 40°39' W 074°05'4 7.7
2017-Nov-12 21:00N 40°42' W 074°02'4 8.0
2017-Nov-12 20:30N 40°46' W 074°00'4 7.8
2017-Nov-12 20:00N 40°50' W 073°58'4 8.2
2017-Nov-12 19:30N 40°53' W 073°56'6 0.3
2017-Nov-12 02:43N 40°59' W 073°54'2 5.8
2017-Nov-12 02:26N 40°57' W 073°54'3 5.9
2017-Nov-12 02:00N 40°55' W 073°55'3 5.9
2017-Nov-12 01:30N 40°52' W 073°56'3 5.8
2017-Nov-12 01:00N 40°49' W 073°58'3 6.1
2017-Nov-12 00:30N 40°47' W 073°60'3 6.6
2017-Nov-12 00:00N 40°44' W 074°01'3 6.8
2017-Nov-11 23:30N 40°40' W 074°03'4 7.8
2017-Nov-11 23:00N 40°39' W 074°07'4 7.4
2017-Nov-11 22:30N 40°38' W 074°12'4 7.0
2017-Nov-11 21:52N 40°33' W 074°13'2 0.1
2017-Nov-11 08:54N 40°32' W 074°15'1 1.9
2017-Nov-11 08:30N 40°33' W 074°15'1 0.0
2017-Nov-10 11:46N 40°32' W 074°15'1 2.3
2017-Nov-10 11:27N 40°33' W 074°15'2 2.7
2017-Nov-10 10:45N 40°34' W 074°13'2 8.1
2017-Nov-10 10:30N 40°36' W 074°12'3 6.7
2017-Nov-10 10:00N 40°39' W 074°09'3 6.9
2017-Nov-10 09:30N 40°39' W 074°05'4 8.6
2017-Nov-10 09:00N 40°42' W 074°00'5 9.8
2017-Nov-10 08:29N 40°46' W 073°57'4 8.2
2017-Nov-10 08:00N 40°48' W 073°52'6 0.4
2017-Nov-09 16:08N 40°51' W 073°45'2 8.2
2017-Nov-09 15:57N 40°50' W 073°46'3 6.8
2017-Nov-09 15:30N 40°48' W 073°49'5 9.2
2017-Nov-09 15:00N 40°47' W 073°55'510.0
2017-Nov-09 14:30N 40°43' W 073°58'4 8.8
2017-Nov-09 14:00N 40°40' W 074°03'3 6.6
2017-Nov-09 13:30N 40°39' W 074°07'4 6.5
2017-Nov-09 12:58N 40°38' W 074°12'1 1.8
2017-Nov-09 12:30N 40°38' W 074°12'0 0.0
2017-Nov-09 12:00N 40°38' W 074°12'0 0.0
2017-Nov-09 11:30N 40°38' W 074°12'0 0.0
2017-Nov-09 11:00N 40°38' W 074°12'0 0.0
2017-Nov-09 10:30N 40°38' W 074°12'0 0.0
2017-Nov-09 10:00N 40°38' W 074°12'0 0.0
2017-Nov-09 09:30N 40°38' W 074°12'0 0.0
2017-Nov-09 09:00N 40°38' W 074°12'0 0.0
2017-Nov-09 08:30N 40°38' W 074°12'0 0.0
2017-Nov-09 08:00N 40°38' W 074°12'0 0.0
2017-Nov-09 07:30N 40°38' W 074°12'0 0.0
2017-Nov-09 07:00N 40°38' W 074°12'0 0.0
2017-Nov-09 06:28N 40°38' W 074°12'0 0.0
2017-Nov-09 05:59N 40°38' W 074°12'0 0.0
2017-Nov-09 05:30N 40°38' W 074°12'0 0.0
2017-Nov-09 04:59N 40°38' W 074°12'0 0.0
2017-Nov-09 04:30N 40°38' W 074°12'0 0.0
2017-Nov-09 04:00N 40°38' W 074°12'0 0.0
2017-Nov-09 03:30N 40°38' W 074°12'0 0.0
2017-Nov-09 02:58N 40°38' W 074°12'0 0.0
2017-Nov-09 02:29N 40°38' W 074°12'0 0.0
2017-Nov-09 02:00N 40°38' W 074°12'0 0.0
2017-Nov-09 01:30N 40°38' W 074°12'0 0.0
2017-Nov-09 01:00N 40°38' W 074°12'0 0.0
2017-Nov-09 00:29N 40°38' W 074°12'0 0.6
2017-Nov-09 00:00N 40°38' W 074°12'3 5.3
2017-Nov-08 23:30N 40°39' W 074°09'4 7.3
2017-Nov-08 23:00N 40°39' W 074°04'4 7.5
2017-Nov-08 22:29N 40°35' W 074°02'13 6.7
2017-Nov-08 20:31N 40°38' W 073°45'0 1.9
2017-Nov-08 20:30N 40°38' W 073°45'0 0.0
2017-Nov-08 20:00N 40°38' W 073°45'0 0.0
2017-Nov-08 19:30N 40°38' W 073°45'0 0.0
2017-Nov-08 19:00N 40°38' W 073°45'0 0.0
2017-Nov-08 18:30N 40°38' W 073°45'0 0.0
2017-Nov-08 18:00N 40°38' W 073°45'0 0.0
2017-Nov-08 17:30N 40°38' W 073°45'0 0.0
2017-Nov-08 16:59N 40°38' W 073°45'0 0.0
2017-Nov-08 16:30N 40°38' W 073°45'0 0.0
2017-Nov-08 16:00N 40°38' W 073°45'0 0.0
2017-Nov-08 15:30N 40°38' W 073°45'0 0.0
2017-Nov-08 14:59N 40°38' W 073°45'0 0.0
2017-Nov-08 14:20N 40°38' W 073°45'0 0.0
2017-Nov-08 14:00N 40°38' W 073°45'0 0.0
2017-Nov-08 13:29N 40°38' W 073°45'0 0.0
2017-Nov-08 13:00N 40°38' W 073°45'0 0.0
2017-Nov-08 12:30N 40°38' W 073°45'0 0.0
2017-Nov-08 12:00N 40°38' W 073°45'0 0.0
2017-Nov-08 11:30N 40°38' W 073°45'0 0.0
2017-Nov-08 10:59N 40°38' W 073°45'0 0.0
2017-Nov-08 10:30N 40°38' W 073°45'0 0.0
2017-Nov-08 10:00N 40°38' W 073°45'0 0.0
2017-Nov-08 09:29N 40°38' W 073°45'0 0.0
2017-Nov-08 09:00N 40°38' W 073°45'0 0.0
2017-Nov-08 08:30N 40°38' W 073°45'0 0.0
2017-Nov-08 08:00N 40°38' W 073°45'0 0.0
2017-Nov-08 07:29N 40°38' W 073°45'0 0.0
2017-Nov-08 06:59N 40°38' W 073°45'0 0.0
2017-Nov-08 06:28N 40°38' W 073°45'0 0.0
2017-Nov-08 06:00N 40°38' W 073°45'0 0.0
2017-Nov-08 05:30N 40°38' W 073°45'0 0.0
2017-Nov-08 05:00N 40°38' W 073°45'0 0.0
2017-Nov-08 04:30N 40°38' W 073°45'0 0.0
2017-Nov-08 04:00N 40°38' W 073°45'0 0.0
2017-Nov-08 03:30N 40°38' W 073°45'0 0.0
2017-Nov-08 03:00N 40°38' W 073°45'0 0.0
2017-Nov-08 02:30N 40°38' W 073°45'0 0.0
2017-Nov-08 02:00N 40°38' W 073°45'0 0.0
2017-Nov-08 01:30N 40°38' W 073°45'0 0.0
2017-Nov-08 01:00N 40°38' W 073°45'0 0.0
2017-Nov-08 00:30N 40°38' W 073°45'0 0.0
2017-Nov-07 23:59N 40°38' W 073°45'0 0.0
2017-Nov-07 23:29N 40°38' W 073°45'0 0.0
2017-Nov-07 23:00N 40°38' W 073°45'0 0.0
2017-Nov-07 22:30N 40°38' W 073°45'0 0.0
2017-Nov-07 22:00N 40°38' W 073°45'0 0.0
2017-Nov-07 21:30N 40°38' W 073°45'0 0.0
2017-Nov-07 20:58N 40°38' W 073°45'0 0.0
2017-Nov-07 20:30N 40°38' W 073°45'0 0.0
2017-Nov-07 19:59N 40°38' W 073°45'0 0.0
2017-Nov-07 19:30N 40°38' W 073°45'0 0.0
2017-Nov-07 18:59N 40°38' W 073°45'0 0.0
2017-Nov-07 18:30N 40°38' W 073°45'0 0.0
2017-Nov-07 18:00N 40°38' W 073°45'0 0.0
2017-Nov-07 17:30N 40°38' W 073°45'0 0.0
2017-Nov-07 17:00N 40°38' W 073°45'0 0.0
2017-Nov-07 16:30N 40°38' W 073°45'0 0.0
2017-Nov-07 15:59N 40°38' W 073°45'0 0.1
2017-Nov-07 15:30N 40°38' W 073°45'0 0.1
2017-Nov-07 15:00N 40°38' W 073°45'0 0.0
2017-Nov-07 14:30N 40°38' W 073°45'2 3.6
2017-Nov-07 14:00N 40°37' W 073°47'3 6.2
2017-Nov-07 13:30N 40°35' W 073°50'3 5.7
2017-Nov-07 13:00N 40°34' W 073°54'3 6.3
2017-Nov-07 12:30N 40°34' W 073°58'3 5.1
2017-Nov-07 12:00N 40°35' W 074°01'0 0.1
2017-Nov-07 11:30N 40°35' W 074°01'0 0.0
2017-Nov-07 11:00N 40°35' W 074°01'0 0.0
2017-Nov-07 10:30N 40°35' W 074°01'0 0.0
2017-Nov-07 09:55N 40°35' W 074°01'0 0.0
2017-Nov-07 09:29N 40°35' W 074°01'0 0.1
2017-Nov-07 08:59N 40°35' W 074°01'0 0.0
2017-Nov-07 08:28N 40°35' W 074°01'0 0.0
2017-Nov-07 08:00N 40°35' W 074°01'0 0.0
2017-Nov-07 07:30N 40°35' W 074°01'1 1.7
2017-Nov-07 07:00N 40°35' W 074°02'4 8.7
2017-Nov-07 06:30N 40°39' W 074°06'4 8.5
2017-Nov-07 06:00N 40°39' W 074°11'3 4.7
2017-Nov-07 05:26N 40°36' W 074°12'0 0.3
2017-Nov-07 04:16N 40°36' W 074°12'0 0.0
2017-Nov-07 03:47N 40°36' W 074°12'0 0.0
2017-Nov-07 02:58N 40°36' W 074°12'0 0.0
2017-Nov-07 02:28N 40°36' W 074°12'0 0.0
2017-Nov-07 02:00N 40°36' W 074°12'0 0.0
2017-Nov-07 01:29N 40°36' W 074°12'0 0.0
2017-Nov-07 00:58N 40°36' W 074°12'0 0.0
2017-Nov-07 00:28N 40°36' W 074°12'0 0.0
2017-Nov-06 23:52N 40°36' W 074°12'0 0.0
2017-Nov-06 23:30N 40°36' W 074°12'0 0.1
2017-Nov-06 23:00N 40°36' W 074°12'0 0.0
2017-Nov-06 20:12N 40°36' W 074°12'23 1.3
2017-Nov-06 02:29N 40°48' W 073°47'510.4
2017-Nov-06 01:59N 40°48' W 073°54'612.7
2017-Nov-06 01:30N 40°43' W 073°58'611.4
2017-Nov-06 01:00N 40°39' W 074°04'5 9.0
2017-Nov-06 00:30N 40°39' W 074°10'1 2.6
2017-Nov-06 00:01N 40°38' W 074°12'0 0.0
2017-Nov-05 23:30N 40°38' W 074°12'0 0.0
2017-Nov-05 23:01N 40°38' W 074°12'  
Track history (hours):
 
Tides and Currents Weather Stations Pressure Air Temp Water Temp Dewpoint Dewpoint Depression Visibility Wind Speed Wind Dir Waves Ship Positions

Delta Fantasy

Owner: Crosby Marine Transportation LLC, Golden Meadow, LA. More information available from US FCC via Universal Licensing System and Coast Guard Vessel Documentation Center.

Last reported at 2017-Nov-15 08:14 UTC. Time now 2017-Nov-18 11:53 UTC.
Position N 40°60' W 073°53'.

Length 32 m; draft 4 m.

Type: Tug. MMSI: 367497610.

Date/timePositionNaut miles runAvg speedWind from/ knotsBaromVisibWave heightAir tempDewpointWater temp
2017-Nov-15 08:14N 40°60' W 073°53'2 7.1
2017-Nov-15 07:58N 40°58' W 073°54'3 6.8
2017-Nov-15 07:30N 40°55' W 073°55'3 6.4
2017-Nov-15 07:00N 40°52' W 073°56'3 6.0
2017-Nov-15 06:30N 40°49' W 073°58'3 5.4
2017-Nov-15 06:00N 40°47' W 073°60'3 5.3
2017-Nov-15 05:30N 40°44' W 074°01'3 5.4
2017-Nov-15 05:01N 40°42' W 074°02'3 6.0
2017-Nov-15 04:30N 40°39' W 074°04'4 7.9
2017-Nov-15 04:01N 40°39' W 074°10'3 6.0
2017-Nov-15 03:30N 40°36' W 074°12'3 5.8
2017-Nov-15 02:58N 40°33' W 074°13'2 0.6
2017-Nov-14 23:24N 40°32' W 074°15'0 0.0
2017-Nov-14 18:16N 40°32' W 074°15'0 1.7
2017-Nov-14 17:59N 40°33' W 074°15'0 0.0
2017-Nov-14 17:30N 40°33' W 074°15'1 1.6
2017-Nov-14 16:37N 40°33' W 074°14'0 0.2
2017-Nov-14 16:25N 40°33' W 074°14'2 3.9
2017-Nov-14 16:01N 40°35' W 074°13'4 7.8
2017-Nov-14 15:30N 40°39' W 074°11'4 7.8
2017-Nov-14 15:00N 40°39' W 074°06'5 9.3
2017-Nov-14 14:30N 40°41' W 074°01'510.9
2017-Nov-14 14:00N 40°46' W 073°57'5 9.3
2017-Nov-14 13:30N 40°48' W 073°52'24 0.6
2017-Nov-12 23:50N 40°32' W 074°15'1 2.3
2017-Nov-12 23:30N 40°33' W 074°15'2 2.7
2017-Nov-12 22:49N 40°34' W 074°13'3 9.0
2017-Nov-12 22:30N 40°37' W 074°12'3 6.9
2017-Nov-12 22:00N 40°39' W 074°08'3 5.8
2017-Nov-12 21:30N 40°39' W 074°05'4 7.7
2017-Nov-12 21:00N 40°42' W 074°02'4 8.0
2017-Nov-12 20:30N 40°46' W 074°00'4 7.8
2017-Nov-12 20:00N 40°50' W 073°58'4 8.2
2017-Nov-12 19:30N 40°53' W 073°56'6 0.3
2017-Nov-12 02:43N 40°59' W 073°54'2 5.8
2017-Nov-12 02:26N 40°57' W 073°54'3 5.9
2017-Nov-12 02:00N 40°55' W 073°55'3 5.9
2017-Nov-12 01:30N 40°52' W 073°56'3 5.8
2017-Nov-12 01:00N 40°49' W 073°58'3 6.1
2017-Nov-12 00:30N 40°47' W 073°60'3 6.6
2017-Nov-12 00:00N 40°44' W 074°01'3 6.8
2017-Nov-11 23:30N 40°40' W 074°03'4 7.8
2017-Nov-11 23:00N 40°39' W 074°07'4 7.4
2017-Nov-11 22:30N 40°38' W 074°12'4 7.0
2017-Nov-11 21:52N 40°33' W 074°13'2 0.1
2017-Nov-11 08:54N 40°32' W 074°15'1 1.9
2017-Nov-11 08:30N 40°33' W 074°15'1 0.0
2017-Nov-10 11:46N 40°32' W 074°15'1 2.3
2017-Nov-10 11:27N 40°33' W 074°15'2 2.7
2017-Nov-10 10:45N 40°34' W 074°13'2 8.1
2017-Nov-10 10:30N 40°36' W 074°12'3 6.7
2017-Nov-10 10:00N 40°39' W 074°09'3 6.9
2017-Nov-10 09:30N 40°39' W 074°05'4 8.6
2017-Nov-10 09:00N 40°42' W 074°00'5 9.8
2017-Nov-10 08:29N 40°46' W 073°57'4 8.2
2017-Nov-10 08:00N 40°48' W 073°52'6 0.4
2017-Nov-09 16:08N 40°51' W 073°45'2 8.2
2017-Nov-09 15:57N 40°50' W 073°46'3 6.8
2017-Nov-09 15:30N 40°48' W 073°49'5 9.2
2017-Nov-09 15:00N 40°47' W 073°55'510.0
2017-Nov-09 14:30N 40°43' W 073°58'4 8.8
2017-Nov-09 14:00N 40°40' W 074°03'3 6.6
2017-Nov-09 13:30N 40°39' W 074°07'4 6.5
2017-Nov-09 12:58N 40°38' W 074°12'1 1.8
2017-Nov-09 12:30N 40°38' W 074°12'0 0.0
2017-Nov-09 12:00N 40°38' W 074°12'0 0.0
2017-Nov-09 11:30N 40°38' W 074°12'0 0.0
2017-Nov-09 11:00N 40°38' W 074°12'0 0.0
2017-Nov-09 10:30N 40°38' W 074°12'0 0.0
2017-Nov-09 10:00N 40°38' W 074°12'0 0.0
2017-Nov-09 09:30N 40°38' W 074°12'0 0.0
2017-Nov-09 09:00N 40°38' W 074°12'0 0.0
2017-Nov-09 08:30N 40°38' W 074°12'0 0.0
2017-Nov-09 08:00N 40°38' W 074°12'0 0.0
2017-Nov-09 07:30N 40°38' W 074°12'0 0.0
2017-Nov-09 07:00N 40°38' W 074°12'0 0.0
2017-Nov-09 06:28N 40°38' W 074°12'0 0.0
2017-Nov-09 05:59N 40°38' W 074°12'0 0.0
2017-Nov-09 05:30N 40°38' W 074°12'0 0.0
2017-Nov-09 04:59N 40°38' W 074°12'0 0.0
2017-Nov-09 04:30N 40°38' W 074°12'0 0.0
2017-Nov-09 04:00N 40°38' W 074°12'0 0.0
2017-Nov-09 03:30N 40°38' W 074°12'0 0.0
2017-Nov-09 02:58N 40°38' W 074°12'0 0.0
2017-Nov-09 02:29N 40°38' W 074°12'0 0.0
2017-Nov-09 02:00N 40°38' W 074°12'0 0.0
2017-Nov-09 01:30N 40°38' W 074°12'0 0.0
2017-Nov-09 01:00N 40°38' W 074°12'0 0.0
2017-Nov-09 00:29N 40°38' W 074°12'0 0.6
2017-Nov-09 00:00N 40°38' W 074°12'3 5.3
2017-Nov-08 23:30N 40°39' W 074°09'4 7.3
2017-Nov-08 23:00N 40°39' W 074°04'4 7.5
2017-Nov-08 22:29N 40°35' W 074°02'13 6.7
2017-Nov-08 20:31N 40°38' W 073°45'0 1.9
2017-Nov-08 20:30N 40°38' W 073°45'0 0.0
2017-Nov-08 20:00N 40°38' W 073°45'0 0.0
2017-Nov-08 19:30N 40°38' W 073°45'0 0.0
2017-Nov-08 19:00N 40°38' W 073°45'0 0.0
2017-Nov-08 18:30N 40°38' W 073°45'0 0.0
2017-Nov-08 18:00N 40°38' W 073°45'0 0.0
2017-Nov-08 17:30N 40°38' W 073°45'0 0.0
2017-Nov-08 16:59N 40°38' W 073°45'0 0.0
2017-Nov-08 16:30N 40°38' W 073°45'0 0.0
2017-Nov-08 16:00N 40°38' W 073°45'0 0.0
2017-Nov-08 15:30N 40°38' W 073°45'0 0.0
2017-Nov-08 14:59N 40°38' W 073°45'0 0.0
2017-Nov-08 14:20N 40°38' W 073°45'0 0.0
2017-Nov-08 14:00N 40°38' W 073°45'0 0.0
2017-Nov-08 13:29N 40°38' W 073°45'0 0.0
2017-Nov-08 13:00N 40°38' W 073°45'0 0.0
2017-Nov-08 12:30N 40°38' W 073°45'0 0.0
2017-Nov-08 12:00N 40°38' W 073°45'0 0.0
2017-Nov-08 11:30N 40°38' W 073°45'0 0.0
2017-Nov-08 10:59N 40°38' W 073°45'0 0.0
2017-Nov-08 10:30N 40°38' W 073°45'0 0.0
2017-Nov-08 10:00N 40°38' W 073°45'0 0.0
2017-Nov-08 09:29N 40°38' W 073°45'0 0.0
2017-Nov-08 09:00N 40°38' W 073°45'0 0.0
2017-Nov-08 08:30N 40°38' W 073°45'0 0.0
2017-Nov-08 08:00N 40°38' W 073°45'0 0.0
2017-Nov-08 07:29N 40°38' W 073°45'0 0.0
2017-Nov-08 06:59N 40°38' W 073°45'0 0.0
2017-Nov-08 06:28N 40°38' W 073°45'0 0.0
2017-Nov-08 06:00N 40°38' W 073°45'0 0.0
2017-Nov-08 05:30N 40°38' W 073°45'0 0.0
2017-Nov-08 05:00N 40°38' W 073°45'0 0.0
2017-Nov-08 04:30N 40°38' W 073°45'0 0.0
2017-Nov-08 04:00N 40°38' W 073°45'0 0.0
2017-Nov-08 03:30N 40°38' W 073°45'0 0.0
2017-Nov-08 03:00N 40°38' W 073°45'0 0.0
2017-Nov-08 02:30N 40°38' W 073°45'0 0.0
2017-Nov-08 02:00N 40°38' W 073°45'0 0.0
2017-Nov-08 01:30N 40°38' W 073°45'0 0.0
2017-Nov-08 01:00N 40°38' W 073°45'0 0.0
2017-Nov-08 00:30N 40°38' W 073°45'0 0.0
2017-Nov-07 23:59N 40°38' W 073°45'0 0.0
2017-Nov-07 23:29N 40°38' W 073°45'0 0.0
2017-Nov-07 23:00N 40°38' W 073°45'0 0.0
2017-Nov-07 22:30N 40°38' W 073°45'0 0.0
2017-Nov-07 22:00N 40°38' W 073°45'0 0.0
2017-Nov-07 21:30N 40°38' W 073°45'0 0.0
2017-Nov-07 20:58N 40°38' W 073°45'0 0.0
2017-Nov-07 20:30N 40°38' W 073°45'0 0.0
2017-Nov-07 19:59N 40°38' W 073°45'0 0.0
2017-Nov-07 19:30N 40°38' W 073°45'0 0.0
2017-Nov-07 18:59N 40°38' W 073°45'0 0.0
2017-Nov-07 18:30N 40°38' W 073°45'0 0.0
2017-Nov-07 18:00N 40°38' W 073°45'0 0.0
2017-Nov-07 17:30N 40°38' W 073°45'0 0.0
2017-Nov-07 17:00N 40°38' W 073°45'0 0.0
2017-Nov-07 16:30N 40°38' W 073°45'0 0.0
2017-Nov-07 15:59N 40°38' W 073°45'0 0.1
2017-Nov-07 15:30N 40°38' W 073°45'0 0.1
2017-Nov-07 15:00N 40°38' W 073°45'0 0.0
2017-Nov-07 14:30N 40°38' W 073°45'2 3.6
2017-Nov-07 14:00N 40°37' W 073°47'3 6.2
2017-Nov-07 13:30N 40°35' W 073°50'3 5.7
2017-Nov-07 13:00N 40°34' W 073°54'3 6.3
2017-Nov-07 12:30N 40°34' W 073°58'3 5.1
2017-Nov-07 12:00N 40°35' W 074°01'0 0.1
2017-Nov-07 11:30N 40°35' W 074°01'0 0.0
2017-Nov-07 11:00N 40°35' W 074°01'0 0.0
2017-Nov-07 10:30N 40°35' W 074°01'0 0.0
2017-Nov-07 09:55N 40°35' W 074°01'0 0.0
2017-Nov-07 09:29N 40°35' W 074°01'0 0.1
2017-Nov-07 08:59N 40°35' W 074°01'0 0.0
2017-Nov-07 08:28N 40°35' W 074°01'0 0.0
2017-Nov-07 08:00N 40°35' W 074°01'0 0.0
2017-Nov-07 07:30N 40°35' W 074°01'1 1.7
2017-Nov-07 07:00N 40°35' W 074°02'4 8.7
2017-Nov-07 06:30N 40°39' W 074°06'4 8.5
2017-Nov-07 06:00N 40°39' W 074°11'3 4.7
2017-Nov-07 05:26N 40°36' W 074°12'0 0.3
2017-Nov-07 04:16N 40°36' W 074°12'0 0.0
2017-Nov-07 03:47N 40°36' W 074°12'0 0.0
2017-Nov-07 02:58N 40°36' W 074°12'0 0.0
2017-Nov-07 02:28N 40°36' W 074°12'0 0.0
2017-Nov-07 02:00N 40°36' W 074°12'0 0.0
2017-Nov-07 01:29N 40°36' W 074°12'0 0.0
2017-Nov-07 00:58N 40°36' W 074°12'0 0.0
2017-Nov-07 00:28N 40°36' W 074°12'0 0.0
2017-Nov-06 23:52N 40°36' W 074°12'0 0.0
2017-Nov-06 23:30N 40°36' W 074°12'0 0.1
2017-Nov-06 23:00N 40°36' W 074°12'0 0.0
2017-Nov-06 20:12N 40°36' W 074°12'23 1.3
2017-Nov-06 02:29N 40°48' W 073°47'510.4
2017-Nov-06 01:59N 40°48' W 073°54'612.7
2017-Nov-06 01:30N 40°43' W 073°58'611.4
2017-Nov-06 01:00N 40°39' W 074°04'5 9.0
2017-Nov-06 00:30N 40°39' W 074°10'1 2.6
2017-Nov-06 00:01N 40°38' W 074°12'0 0.0
2017-Nov-05 23:30N 40°38' W 074°12'0 0.0
2017-Nov-05 23:01N 40°38' W 074°12'  

Dump ship's entire track history